Last 7 Days

Gordon Valley 3 (GV3)

Hourly Data | America/Los_Angeles
as of 1/25/20 10:25 PM PST
Date & Time Temp (°F) RH (%) Dew Pt (°F) Wind Spd (mph) Wind Dir (°) Wind Gust (mph) Latest Rain (In) Daily Rain (In) Daily Min Temp (°F) Daily Max Temp (°F)
1/25/20 - 2200 56.5 95 55.2 2.1 S | 175 5.4 0.00 0.00 47.8 64.2
1/25/20 - 2100 57.0 94 55.2 3.9 S | 191 6.8 0.00 0.00 47.8 64.2
1/25/20 - 2000 56.8 90 54.0 2.8 SSW | 203 7.8 0.00 0.00 47.8 64.2
1/25/20 - 1900 55.7 92 53.5 0.5 SSE | 156 4.1 0.00 0.00 47.8 64.2
1/25/20 - 1800 56.8 88 53.4 0.5 S | 187 1.7 0.00 0.00 47.8 64.2
1/25/20 - 1700 58.6 84 53.9 1.2 SE | 143 4.8 0.00 0.00 47.8 64.2
1/25/20 - 1600 60.5 80 54.4 3.2 SSE | 153 6.4 0.00 0.00 47.8 64.2
1/25/20 - 1500 62.6 75 54.7 3.7 SSE | 149 8.1 0.00 0.00 47.8 64.2
1/25/20 - 1400 63.7 70 54.0 2.9 S | 184 8.1 0.00 0.00 47.8 64.2
1/25/20 - 1300 63.1 72 54.0 2.5 SSE | 167 6.8 0.00 0.00 47.8 64.0
1/25/20 - 1200 62.1 73 53.3 1.8 S | 183 5.4 0.00 0.00 47.8 62.8
1/25/20 - 1100 59.6 77 52.5 1.9 SE | 137 4.8 0.00 0.00 47.8 61.2
1/25/20 - 1000 58.4 80 52.2 1.2 SSW | 209 4.1 0.00 0.00 47.8 59.0
1/25/20 - 0900 53.8 95 52.3 0.6 NNE | 22 2.4 0.00 0.00 47.8 57.1
1/25/20 - 0800 51.6 99 51.3 0.7 ENE | 71 2.7 0.00 0.00 47.8 52.3
1/25/20 - 0700 51.0 99 50.8 0.5 N | 354 2.7 0.00 0.00 47.8 52.2
1/25/20 - 0600 50.5 100 50.4 0.7 ENE | 65 2.4 0.00 0.00 47.8 52.2
1/25/20 - 0500 49.9 100 49.9 0.6 WNW | 282 2.4 0.00 0.00 47.8 52.2
1/25/20 - 0400 49.9 97 49.2 0.5 ESE | 111 2.1 0.00 0.00 47.8 52.2
1/25/20 - 0300 52.0 97 51.3 0.4 E | 87 0.4 0.00 0.00 51.6 52.2
1/25/20 - 0200 52.1 97 51.3 0.4 NE | 51 1.4 0.00 0.00 51.6 52.2
1/25/20 - 0100 51.9 96 50.9 0.5 SE | 139 1.7 0.00 0.00 51.6 52.2
1/25/20 - 0000 52.1 96 51.0 0.4 NE | 40 1.4 0.00 0.00 38.8 68.1
1/24/20 - 2300 53.0 94 51.2 0.7 E | 100 2.4 0.00 0.00 38.8 68.1
1/24/20 - 2200 53.2 94 51.5 1.5 SW | 218 4.4 0.00 0.00 38.8 68.1
1/24/20 - 2100 54.1 94 52.2 1.1 SSW | 195 4.4 0.00 0.00 38.8 68.1
1/24/20 - 2000 54.8 92 52.5 0.5 NE | 44 2.1 0.00 0.00 38.8 68.1
1/24/20 - 1900 56.7 86 52.5 0.4 NNE | 13 2.4 0.00 0.00 38.8 68.1
1/24/20 - 1800 60.2 77 52.9 1.5 NNW | 327 6.1 0.00 0.00 38.8 68.1
1/24/20 - 1700 63.6 70 53.8 2.9 S | 179 7.4 0.00 0.00 38.8 68.1
1/24/20 - 1600 65.5 63 52.7 3.0 SE | 134 8.4 0.00 0.00 38.8 68.1
1/24/20 - 1500 65.3 65 53.1 3.8 S | 172 8.1 0.00 0.00 38.8 68.1
1/24/20 - 1400 66.5 62 53.3 3.7 SSE | 153 8.4 0.00 0.00 38.8 68.1
1/24/20 - 1300 64.6 67 53.4 5.0 SSE | 150 10.1 0.00 0.00 38.8 65.8
1/24/20 - 1200 64.1 68 53.2 4.4 SE | 127 8.1 0.00 0.00 38.8 65.8
1/24/20 - 1100 62.6 70 52.6 2.9 SSE | 155 6.8 0.00 0.00 38.8 64.3
1/24/20 - 1000 56.6 84 51.7 1.5 SSW | 194 5.1 0.00 0.00 38.8 59.8
1/24/20 - 0900 47.4 100 47.4 0.5 ENE | 78 3.4 0.00 0.00 38.8 53.8
1/24/20 - 0800 40.5 100 40.5 1.3 NNE | 33 3.8 0.00 0.00 38.8 43.8
1/24/20 - 0700 39.8 100 39.8 1.0 ENE | 68 3.8 0.00 0.00 38.8 43.8
1/24/20 - 0600 40.6 100 40.6 1.2 NNE | 30 3.4 0.00 0.00 39.7 43.8
1/24/20 - 0500 40.6 100 40.6 1.2 NE | 45 3.1 0.00 0.00 39.8 43.8
1/24/20 - 0400 41.6 100 41.6 0.6 NE | 35 2.7 0.00 0.00 39.8 43.8
1/24/20 - 0300 40.3 100 40.3 0.7 NNE | 27 2.7 0.00 0.00 39.8 43.8
1/24/20 - 0200 41.0 100 40.9 0.8 NE | 37 2.7 0.00 0.00 39.8 43.8
1/24/20 - 0100 42.6 100 42.6 1.3 NE | 48 3.8 0.00 0.00 41.7 43.8
1/24/20 - 0000 43.0 100 42.9 1.1 NE | 50 3.1 0.00 0.00 37.9 59.0
1/23/20 - 2300 44.3 99 44.0 0.9 N | 2 2.4 0.00 0.00 37.9 59.0
1/23/20 - 2200 46.7 97 45.9 0.6 NNE | 13 2.4 0.00 0.00 37.9 59.0
1/23/20 - 2100 48.2 96 47.2 0.6 ENE | 62 2.4 0.00 0.00 37.9 59.0
1/23/20 - 2000 48.7 95 47.3 0.5 NE | 36 2.1 0.00 0.00 37.9 59.0
1/23/20 - 1900 51.3 90 48.4 0.6 E | 94 2.4 0.00 0.00 37.9 59.0
1/23/20 - 1800 53.5 83 48.6 1.8 SW | 217 3.8 0.00 0.00 37.9 59.0
1/23/20 - 1700 56.9 72 47.8 1.8 SSE | 162 4.1 0.00 0.00 37.9 59.0
1/23/20 - 1600 58.4 68 47.8 2.3 SE | 125 4.8 0.00 0.00 37.9 59.0
1/23/20 - 1500 58.5 68 48.1 1.6 SSE | 149 5.8 0.00 0.00 37.9 59.0
1/23/20 - 1400 57.2 74 48.9 1.8 SW | 222 5.4 0.00 0.00 37.9 58.8
1/23/20 - 1300 57.6 72 48.7 2.4 S | 187 5.8 0.00 0.00 37.9 58.8
1/23/20 - 1200 57.5 73 48.8 3.4 SSW | 201 6.4 0.00 0.00 37.9 58.8
1/23/20 - 1100 52.6 87 48.9 2.0 S | 189 6.8 0.00 0.00 37.9 54.4
1/23/20 - 1000 48.0 99 47.6 0.6 NNE | 21 3.1 0.00 0.00 37.9 50.1
1/23/20 - 0900 44.7 100 44.7 1.1 W | 275 4.1 0.00 0.00 37.9 46.1
1/23/20 - 0800 41.4 100 41.4 0.4 NNE | 14 1.4 0.00 0.00 37.9 41.8
1/23/20 - 0700 41.1 100 41.1 0.6 NNE | 24 2.1 0.00 0.00 37.9 41.8
1/23/20 - 0600 40.7 100 40.7 0.5 NNE | 23 2.1 0.00 0.00 37.9 41.5
1/23/20 - 0500 40.4 100 40.4 0.8 NE | 42 3.1 0.00 0.00 37.9 41.5
1/23/20 - 0400 38.4 100 38.4 0.7 NNE | 24 2.7 0.00 0.00 37.9 41.5
1/23/20 - 0300 39.2 100 39.2 0.9 NNE | 18 2.7 0.00 0.00 38.5 41.5
1/23/20 - 0200 40.3 100 40.3 1.1 NE | 44 4.4 0.00 0.00 39.4 41.5
1/23/20 - 0100 40.7 100 40.7 0.9 NE | 47 3.8 0.00 0.00 40.0 41.5
1/23/20 - 0000 41.3 100 41.2 1.7 NE | 54 3.4 0.00 0.00 39.7 64.8
1/22/20 - 2300 43.1 99 43.0 0.9 NE | 54 4.1 0.00 0.00 39.7 64.8
1/22/20 - 2200 44.1 100 44.0 1.1 NE | 44 3.4 0.00 0.00 39.7 64.8
1/22/20 - 2100 44.2 100 44.1 1.1 NE | 46 3.4 0.00 0.00 39.7 64.8
1/22/20 - 2000 45.4 98 44.8 0.7 NE | 53 2.4 0.00 0.00 39.7 64.8
1/22/20 - 1900 47.9 93 46.0 0.6 NNE | 27 2.4 0.00 0.00 39.7 64.8
1/22/20 - 1800 54.6 77 47.6 1.6 NE | 42 5.1 0.00 0.00 39.7 64.8
1/22/20 - 1700 59.9 66 48.5 2.8 E | 84 5.4 0.00 0.00 39.7 64.8
1/22/20 - 1600 62.4 59 48.1 3.2 SSE | 155 7.8 0.00 0.00 39.7 64.8
1/22/20 - 1500 63.1 58 48.0 3.0 SSE | 153 9.1 0.00 0.00 39.7 64.8
1/22/20 - 1400 63.3 56 47.3 2.3 S | 175 7.1 0.00 0.00 39.7 64.8
1/22/20 - 1300 62.8 57 47.1 3.1 SSW | 194 9.1 0.00 0.00 39.7 63.5
1/22/20 - 1200 61.1 54 44.4 1.5 NE | 46 6.1 0.00 0.00 39.7 62.2
1/22/20 - 1100 59.2 60 45.0 1.2 ENE | 69 4.4 0.00 0.00 39.7 61.7
1/22/20 - 1000 52.4 83 47.2 2.9 NE | 34 6.8 0.00 0.00 39.7 56.4
1/22/20 - 0900 46.7 97 45.9 1.8 NNE | 13 6.8 0.00 0.00 39.7 51.9
1/22/20 - 0800 41.9 100 41.9 1.6 NE | 37 4.4 0.00 0.00 39.7 51.9
1/22/20 - 0700 40.6 100 40.6 1.1 NE | 35 4.8 0.00 0.00 39.7 51.9
1/22/20 - 0600 41.8 100 41.8 0.5 N | 6 1.7 0.00 0.00 40.7 51.9
1/22/20 - 0500 44.4 100 44.3 0.5 NNE | 28 2.1 0.00 0.00 42.5 51.9
1/22/20 - 0400 45.4 100 45.4 0.5 NE | 35 1.7 0.00 0.00 45.0 51.9
1/22/20 - 0300 47.2 99 46.9 0.4 N | 4 1.7 0.00 0.00 45.8 51.9
1/22/20 - 0200 49.8 98 49.3 0.4 ENE | 76 1.7 0.00 0.00 48.7 51.9
1/22/20 - 0100 51.4 98 50.7 1.9 SSW | 202 6.4 0.00 0.00 50.8 51.9
1/22/20 - 0000 52.1 97 51.2 4.2 S | 174 8.1 0.00 0.34 36.2 53.0
1/21/20 - 2300 52.4 96 51.4 3.6 S | 191 14.5 0.00 0.34 36.2 53.0
1/21/20 - 2200 52.5 98 51.9 6.4 SW | 233 14.5 0.01 0.34 36.2 53.0
1/21/20 - 2100 51.7 100 51.7 3.0 S | 188 8.1 0.00 0.33 36.2 53.0
1/21/20 - 2000 51.8 100 51.9 2.5 SSW | 198 6.1 0.01 0.33 36.2 53.0
1/21/20 - 1900 51.9 100 51.9 0.8 SSW | 205 3.1 0.00 0.32 36.2 53.0
1/21/20 - 1800 52.2 100 52.2 1.9 SSW | 192 5.1 0.01 0.32 36.2 53.0
1/21/20 - 1700 52.6 100 52.6 2.5 SSE | 164 6.8 0.11 0.31 36.2 53.0
1/21/20 - 1600 52.3 99 52.1 0.6 NNW | 346 2.7 0.13 0.20 36.2 53.0
1/21/20 - 1500 52.1 96 51.1 0.8 WNW | 297 3.1 0.02 0.07 36.2 53.0
1/21/20 - 1400 52.4 92 50.1 0.6 W | 273 2.7 0.02 0.05 36.2 53.0
1/21/20 - 1300 52.6 86 48.6 0.7 SSW | 213 2.7 0.00 0.03 36.2 53.0
1/21/20 - 1200 51.6 91 49.0 0.8 SSW | 194 2.7 0.00 0.03 36.2 52.4
1/21/20 - 1100 49.8 97 48.9 0.4 N | 352 1.7 0.00 0.03 36.2 51.0
1/21/20 - 1000 48.2 100 48.1 0.9 ENE | 64 3.4 0.00 0.03 36.2 49.0
1/21/20 - 0900 46.2 100 46.2 0.5 W | 270 2.4 0.00 0.03 36.2 47.2
1/21/20 - 0800 44.4 100 44.4 0.6 NE | 41 2.7 0.00 0.03 36.2 45.0
1/21/20 - 0700 43.8 100 43.8 0.6 NNW | 336 2.7 0.03 0.03 36.2 44.0
1/21/20 - 0600 42.9 100 42.9 0.5 NE | 34 2.4 0.00 0.00 36.2 43.6
1/21/20 - 0500 41.6 100 41.6 0.5 S | 180 3.4 0.00 0.00 36.2 42.1
1/21/20 - 0400 40.0 100 40.0 0.7 NNE | 21 2.7 0.00 0.00 36.2 41.2
1/21/20 - 0300 38.4 100 38.4 1.4 NNE | 20 3.1 0.00 0.00 36.2 39.5
1/21/20 - 0200 36.8 100 36.8 1.1 NNE | 23 3.4 0.00 0.00 36.2 37.9
1/21/20 - 0100 37.0 100 37.0 1.3 NNE | 16 4.1 0.00 0.00 36.2 37.9
1/21/20 - 0000 36.8 100 36.7 1.1 NNE | 26 3.4 0.00 0.00 36.1 54.6
1/20/20 - 2300 38.6 99 38.3 0.8 NNE | 18 3.1 0.00 0.00 37.7 54.6
1/20/20 - 2200 41.0 97 40.2 0.9 NNE | 29 3.4 0.00 0.00 39.5 54.6
1/20/20 - 2100 44.3 93 42.3 1.0 W | 268 4.4 0.00 0.00 39.5 54.6
1/20/20 - 2000 46.2 89 43.2 2.0 NE | 50 5.1 0.00 0.00 39.5 54.6
1/20/20 - 1900 46.2 89 43.3 0.8 NNE | 18 4.4 0.00 0.00 39.5 54.6
1/20/20 - 1800 49.1 81 43.6 0.8 SW | 214 3.1 0.00 0.00 39.5 54.6
1/20/20 - 1700 51.3 76 44.0 1.4 S | 170 5.4 0.00 0.00 39.5 54.6
1/20/20 - 1600 52.6 72 44.0 3.5 S | 170 6.8 0.00 0.00 39.5 54.6
1/20/20 - 1500 53.8 70 44.2 1.8 SSW | 193 4.4 0.00 0.00 39.5 54.6
1/20/20 - 1400 50.8 77 43.9 1.0 SSE | 156 3.8 0.00 0.00 39.5 53.0
1/20/20 - 1300 48.5 82 43.4 1.6 SW | 224 5.8 0.00 0.00 39.5 49.3
1/20/20 - 1200 46.7 87 43.0 2.3 SSW | 197 7.4 0.00 0.00 39.5 47.4
1/20/20 - 1100 44.0 94 42.5 1.9 NE | 36 4.8 0.00 0.00 39.5 45.4
1/20/20 - 1000 42.5 98 42.0 1.8 SSW | 198 5.8 0.00 0.00 39.5 43.0
1/20/20 - 0900 41.2 100 41.2 1.2 NE | 49 4.4 0.00 0.00 39.5 41.9
1/20/20 - 0800 40.0 100 40.0 1.3 SW | 218 5.4 0.00 0.00 39.5 41.7
1/20/20 - 0700 40.0 99 39.8 1.1 ENE | 76 3.4 0.00 0.00 39.5 41.7
1/20/20 - 0600 40.6 99 40.3 1.7 SSW | 201 5.8 0.00 0.00 40.2 41.7
1/20/20 - 0500 40.8 98 40.2 0.7 W | 277 2.4 0.00 0.00 40.2 41.7
1/20/20 - 0400 41.0 98 40.6 1.5 NNE | 23 5.1 0.00 0.00 40.2 41.7
1/20/20 - 0300 40.9 98 40.4 1.6 W | 276 5.1 0.00 0.00 40.2 41.7
1/20/20 - 0200 41.1 99 40.8 2.0 NNE | 21 6.1 0.00 0.00 40.2 41.7
1/20/20 - 0100 40.5 100 40.4 1.1 E | 98 3.8 0.00 0.00 40.2 41.1
1/20/20 - 0000 40.2 99 40.0 1.1 SSW | 198 4.4 0.00 0.00 32.9 50.1
1/19/20 - 2300 40.7 98 40.2 0.6 ESE | 115 2.7 0.00 0.00 32.9 50.1
1/19/20 - 2200 41.8 97 41.0 0.8 SSE | 165 3.4 0.00 0.00 32.9 50.1
1/19/20 - 2100 42.2 96 41.1 0.7 NNE | 31 3.8 0.00 0.00 32.9 50.1
1/19/20 - 2000 42.3 96 41.2 1.2 WSW | 245 4.4 0.00 0.00 32.9 50.1
1/19/20 - 1900 42.1 96 41.0 2.8 SW | 225 8.1 0.00 0.00 32.9 50.1
1/19/20 - 1800 43.1 93 41.3 4.3 SW | 225 8.8 0.00 0.00 32.9 50.1
1/19/20 - 1700 46.4 85 42.2 3.8 SSE | 159 9.1 0.00 0.00 32.9 50.1
1/19/20 - 1600 48.5 78 42.0 2.4 SE | 140 5.8 0.00 0.00 32.9 50.1
1/19/20 - 1500 48.6 76 41.4 2.7 SE | 138 9.8 0.00 0.00 32.9 50.1
1/19/20 - 1400 49.1 74 41.1 4.1 ESE | 120 11.1 0.00 0.00 32.9 50.1
1/19/20 - 1300 48.6 74 40.6 6.5 ESE | 115 14.8 0.00 0.00 32.9 50.1
1/19/20 - 1200 48.8 73 40.5 6.6 ESE | 107 13.8 0.00 0.00 32.9 50.1
1/19/20 - 1100 45.3 84 40.8 5.4 ESE | 103 12.5 0.00 0.00 32.9 48.4
1/19/20 - 1000 39.8 100 39.8 1.2 S | 190 5.1 0.00 0.00 32.9 42.2
1/19/20 - 0900 38.2 100 38.2 1.2 NNE | 28 3.8 0.00 0.00 32.9 38.8
1/19/20 - 0800 35.8 100 35.8 1.5 WSW | 243 4.8 0.00 0.00 32.9 38.5
1/19/20 - 0700 33.4 100 33.4 0.5 NNE | 29 2.4 0.00 0.00 32.9 38.5
1/19/20 - 0600 33.7 100 33.7 0.5 NNE | 28 2.4 0.00 0.00 32.9 38.5
1/19/20 - 0500 33.7 100 33.7 0.6 NNE | 16 1.7 0.00 0.00 32.9 38.5
1/19/20 - 0400 34.1 100 34.0 0.7 NNE | 19 2.4 0.00 0.00 32.9 38.5
1/19/20 - 0300 35.2 99 35.0 0.7 NNE | 27 2.7 0.00 0.00 34.6 38.5
1/19/20 - 0200 36.7 99 36.4 0.7 NE | 54 3.4 0.00 0.00 36.1 38.5
1/19/20 - 0100 38.1 99 37.7 0.8 NE | 48 4.4 0.00 0.00 37.4 38.5
1/19/20 - 0000 38.7 98 38.1 0.7 N | 5 3.1 0.00 0.01 31.2 57.7
1/18/20 - 2300 39.4 98 38.8 0.7 NNE | 15 2.7 0.00 0.01 31.2 57.7
Max 66.5 100 55.2 6.6 - 14.8 0.13 0.34 51.6 68.1
Avg 48.4 91 45.4 1.6 - 4.7 0.00 - - -
Min 33.4 54 33.4 0.4 - 0.4 0.00 0.00 31.2 37.9
Total - - - - - - 0.34 - - -
Tip: Bookmark this page for easy future reference